Otis, Massachusetts
Current Conditions -  °F | °C
As of 7:42 AM on Monday 24 Nov 2014 (Local Time) from KBAF Reporting Station
Moderate Rain Moderate Rain  
Wind Chill: 42°   Ceiling: 400
Heat Index: 42°   Visibility: 1mi
Dew Point: 39°   Wind: 3mph
Humidity: 89%   Direction: 330°NNW
Pressure: 29.7"   Gusts: NA
Location:  42.19°N, 73.09°W
Report Text: KBAF 241242Z 33003KT 1SM R20/5500VP6000FT RA BR OVC004 06/04 A2970 RMK AO2 P0012 T00560039
Loading
Personal Weather Stations






























Interactive Weather Map New forecast layout! Learn more

10-Day Weather Forecast

Advertisements
Track Severe Weather on mobile